Time;durP1;ratioP1;P1;durP2;ratioP2;P2;SDS_P1;SDS_P2;PMS_P1;PMS_P2;Temp;Humidity;BMP_temperature;BMP_pressure;BME280_temperature;BME280_humidity;BME280_pressure;Samples;Min_cycle;Max_cycle;Signal;HPM_P1;HPM_P2
2023/01/08 00:01:06;;;;;;;4.55;4.25;;;;;;;9.13;100.00;100101.91;6142319;23;20047;-76
2023/01/08 00:03:33;;;;;;;5.03;4.68;;;;;;;8.94;100.00;100077.69;6142511;23;20032;-76
2023/01/08 00:06:05;;;;;;;4.35;4.15;;;;;;;9.06;100.00;100092.72;6138624;23;20029;-74
2023/01/08 00:08:32;;;;;;;4.68;4.38;;;;;;;9.06;100.00;100092.72;6111728;23;20049;-75
2023/01/08 00:10:59;;;;;;;4.15;3.95;;;;;;;8.96;100.00;100074.06;6137525;23;20025;-78
2023/01/08 00:13:26;;;;;;;4.50;4.30;;;;;;;8.99;100.00;100089.59;6113433;23;20032;-75
2023/01/08 00:15:52;;;;;;;5.60;4.28;;;;;;;8.94;100.00;100085.53;6140426;23;20085;-74
2023/01/08 00:18:19;;;;;;;4.30;4.10;;;;;;;8.91;100.00;100080.47;6111929;23;20024;-75
2023/01/08 00:20:46;;;;;;;4.30;4.10;;;;;;;8.58;100.00;100031.72;6137854;23;20025;-75
2023/01/08 00:23:17;;;;;;;4.43;4.15;;;;;;;8.87;100.00;100076.34;6110941;23;20558;-76
2023/01/08 00:25:45;;;;;;;4.20;4.00;;;;;;;8.90;100.00;100071.78;6146259;23;20047;-77
2023/01/08 00:28:13;;;;;;;4.97;4.68;;;;;;;8.89;100.00;100064.03;6117290;23;20108;-74
2023/01/08 00:30:40;;;;;;;4.07;3.88;;;;;;;8.32;100.00;99967.72;6144559;23;20209;-75
2023/01/08 00:33:08;;;;;;;4.20;4.00;;;;;;;8.50;100.00;100012.94;6145379;23;20033;-74
2023/01/08 00:35:36;;;;;;;4.35;4.15;;;;;;;8.65;100.00;100027.81;6156335;23;20443;-73
2023/01/08 00:38:05;;;;;;;4.35;4.15;;;;;;;8.55;100.00;100008.31;6117086;23;20021;-78
2023/01/08 00:40:33;;;;;;;4.30;4.10;;;;;;;9.06;100.00;100077.03;6122318;23;20081;-77
2023/01/08 00:43:00;;;;;;;4.88;4.57;;;;;;;9.09;100.00;100070.75;6139491;23;20103;-75
2023/01/08 00:45:26;;;;;;;5.93;4.22;;;;;;;9.11;100.00;100068.91;6148058;23;20032;-74
2023/01/08 00:47:53;;;;;;;4.00;3.80;;;;;;;9.11;100.00;100058.44;6159433;23;20036;-77
2023/01/08 00:50:19;;;;;;;4.50;4.30;;;;;;;9.09;100.00;100058.50;6120492;23;20006;-77
2023/01/08 00:52:45;;;;;;;4.22;4.03;;;;;;;9.13;100.00;100080.97;6126668;23;20013;-77
2023/01/08 00:55:12;;;;;;;4.20;4.00;;;;;;;9.14;100.00;100069.56;6115589;23;20021;-74
2023/01/08 00:57:38;;;;;;;4.20;4.00;;;;;;;9.16;100.00;100064.22;6140093;23;20021;-78
2023/01/08 01:00:07;;;;;;;4.25;4.05;;;;;;;8.81;100.00;100000.81;6118335;23;20026;-75
2023/01/08 01:02:38;;;;;;;4.32;4.13;;;;;;;8.85;100.00;100013.63;6120507;23;20120;-75
2023/01/08 01:05:05;;;;;;;4.00;3.80;;;;;;;8.91;100.00;100015.06;6139936;23;20024;-75
2023/01/08 01:07:34;;;;;;;4.45;4.22;;;;;;;9.25;100.00;100068.13;6134195;23;20025;-74
2023/01/08 01:10:01;;;;;;;4.38;4.07;;;;;;;9.26;100.00;100067.19;6148947;23;20009;-76
2023/01/08 01:12:27;;;;;;;4.20;4.00;;;;;;;9.10;100.00;100030.56;6143710;23;20676;-77
2023/01/08 01:14:54;;;;;;;5.18;4.78;;;;;;;9.07;100.00;100026.34;6119626;23;20585;-75
2023/01/08 01:17:20;;;;;;;4.25;4.05;;;;;;;8.71;100.00;99969.91;6150152;23;20049;-77
2023/01/08 01:19:47;;;;;;;4.22;4.03;;;;;;;8.94;100.00;100034.06;6116271;23;20086;-77
2023/01/08 01:22:13;;;;;;;4.05;3.85;;;;;;;8.70;100.00;99970.88;6156530;23;20024;-78
2023/01/08 01:24:40;;;;;;;7.28;4.20;;;;;;;9.24;100.00;100050.72;6123533;23;20432;-77
2023/01/08 01:27:06;;;;;;;4.22;3.92;;;;;;;9.24;100.00;100059.44;6150519;23;20029;-74
2023/01/08 01:29:32;;;;;;;5.05;4.70;;;;;;;8.78;100.00;99989.59;6112177;23;20059;-76
2023/01/08 01:31:59;;;;;;;4.00;3.80;;;;;;;9.21;100.00;100061.38;6156367;23;20031;-75
2023/01/08 01:34:25;;;;;;;5.03;4.30;;;;;;;9.12;100.00;100047.88;6116822;23;20017;-76
2023/01/08 01:36:52;;;;;;;4.05;3.83;;;;;;;9.21;100.00;100058.75;6157570;23;20050;-74
2023/01/08 01:39:18;;;;;;;5.68;5.38;;;;;;;8.85;100.00;100008.41;6118440;23;20069;-76
2023/01/08 01:41:46;;;;;;;4.22;4.03;;;;;;;9.14;100.00;100055.63;6141747;23;20425;-74
2023/01/08 01:44:35;;;;;;;4.40;4.20;;;;;;;8.65;100.00;99972.88;6115027;23;20659;-75
2023/01/08 01:47:11;;;;;;;4.60;4.30;;;;;;;8.55;100.00;99953.41;6158123;23;20074;-77
2023/01/08 01:49:42;;;;;;;4.30;4.10;;;;;;;9.25;100.00;100060.28;6113705;23;20377;-77
2023/01/08 01:52:10;;;;;;;4.57;4.20;;;;;;;8.63;100.00;99958.22;6153288;23;20021;-76
2023/01/08 01:54:37;;;;;;;4.20;4.00;;;;;;;8.62;100.00;99953.91;6118979;23;20149;-74
2023/01/08 01:57:03;;;;;;;4.30;4.07;;;;;;;8.81;100.00;99990.34;6152735;23;20037;-75
2023/01/08 01:59:30;;;;;;;4.93;4.53;;;;;;;8.48;100.00;99938.97;6140868;23;20625;-76
2023/01/08 02:01:57;;;;;;;4.60;4.20;;;;;;;9.07;100.00;100028.13;6156738;23;20102;-74
2023/01/08 02:04:23;;;;;;;4.13;3.92;;;;;;;9.13;100.00;100033.84;6119059;23;20065;-77
2023/01/08 02:07:04;;;;;;;4.63;4.40;;;;;;;9.07;100.00;100039.44;6146225;23;20061;-74
2023/01/08 02:09:40;;;;;;;4.50;4.20;;;;;;;9.03;100.00;100034.47;6149087;23;20477;-77
2023/01/08 02:12:16;;;;;;;4.18;3.97;;;;;;;9.06;100.00;100031.66;6143478;23;21798;-74
2023/01/08 02:15:12;;;;;;;4.30;4.10;;;;;;;8.80;100.00;99981.66;6112188;23;20029;-74
2023/01/08 02:17:56;;;;;;;4.13;3.92;;;;;;;8.93;100.00;100006.19;6156085;23;20731;-77
2023/01/08 02:20:28;;;;;;;4.05;3.85;;;;;;;9.02;100.00;100010.06;6108270;23;20385;-75
2023/01/08 02:22:54;;;;;;;4.45;4.25;;;;;;;9.04;100.00;100002.97;6159283;23;20403;-74
2023/01/08 02:25:49;;;;;;;4.53;4.32;;;;;;;9.03;100.00;100006.50;6135155;23;20032;-74
2023/01/08 02:28:16;;;;;;;4.45;4.25;;;;;;;9.05;100.00;99999.41;6143773;23;20108;-74
2023/01/08 02:30:43;;;;;;;4.53;4.28;;;;;;;8.65;100.00;99923.19;6147897;23;20009;-75
2023/01/08 02:33:10;;;;;;;4.45;4.07;;;;;;;8.63;100.00;99905.91;6148547;23;20471;-73
2023/01/08 02:36:10;;;;;;;4.72;4.30;;;;;;;9.07;100.00;99994.09;6146192;23;20020;-75
2023/01/08 02:38:49;;;;;;;4.95;4.65;;;;;;;8.47;100.00;99893.69;6144069;23;20032;-74
2023/01/08 02:41:18;;;;;;;4.22;3.92;;;;;;;8.88;100.00;99961.13;6145264;23;20010;-76
2023/01/08 02:43:48;;;;;;;3.92;3.72;;;;;;;9.04;100.00;99974.19;6150839;23;20021;-75
2023/01/08 02:46:25;;;;;;;4.80;4.40;;;;;;;9.07;100.00;99984.47;6135055;23;20593;-74
2023/01/08 02:48:58;;;;;;;4.10;3.90;;;;;;;8.38;100.00;99871.50;6093099;23;20313;-75
2023/01/08 02:51:39;;;;;;;6.40;4.05;;;;;;;8.31;100.00;99870.13;6141473;23;20013;-74
2023/01/08 02:54:10;;;;;;;4.20;4.00;;;;;;;8.61;100.00;99900.75;6109300;23;20025;-73
2023/01/08 02:56:41;;;;;;;4.65;4.35;;;;;;;8.93;100.00;99950.41;6154514;23;20547;-74
2023/01/08 02:59:11;;;;;;;4.32;4.10;;;;;;;9.01;100.00;99968.28;6152518;23;20061;-75
2023/01/08 03:01:39;;;;;;;4.50;4.30;;;;;;;8.23;100.00;99833.13;6142320;23;20008;-74
2023/01/08 03:04:13;;;;;;;4.55;4.25;;;;;;;8.39;100.00;99865.31;6106491;23;20092;-75
2023/01/08 03:06:41;;;;;;;4.97;4.60;;;;;;;9.04;100.00;99957.63;6124127;23;20033;-75
2023/01/08 03:09:08;;;;;;;4.30;4.10;;;;;;;9.08;100.00;99964.34;6140386;23;20033;-75
2023/01/08 03:11:50;;;;;;;4.60;4.40;;;;;;;9.15;100.00;99947.38;6142382;23;20035;-75
2023/01/08 03:14:48;;;;;;;4.30;4.10;;;;;;;8.95;100.00;99919.75;6111305;23;20467;-76
2023/01/08 03:17:28;;;;;;;4.00;3.80;;;;;;;9.13;100.00;99949.25;6136733;23;20025;-75
2023/01/08 03:20:00;;;;;;;4.20;3.97;;;;;;;9.12;100.00;99943.19;6137755;23;20036;-76
2023/01/08 03:22:30;;;;;;;4.53;4.22;;;;;;;9.12;100.00;99939.69;6151854;23;20052;-76
2023/01/08 03:24:58;;;;;;;4.85;4.43;;;;;;;9.11;100.00;99931.00;6116813;23;20020;-75
2023/01/08 03:27:28;;;;;;;4.32;4.10;;;;;;;9.11;100.00;99940.63;6135129;23;20028;-78
2023/01/08 03:29:57;;;;;;;4.45;4.25;;;;;;;8.93;100.00;99921.59;6143416;23;20088;-76
2023/01/08 03:32:26;;;;;;;4.60;4.30;;;;;;;8.84;100.00;99904.69;6148816;23;20017;-74
2023/01/08 03:34:55;;;;;;;4.75;4.40;;;;;;;9.04;100.00;99940.16;6144575;23;20032;-78
2023/01/08 03:37:33;;;;;;;4.40;4.20;;;;;;;9.02;100.00;99931.56;6142159;23;20074;-77
2023/01/08 03:40:38;;;;;;;4.30;4.10;;;;;;;8.98;100.00;99938.75;6143348;23;20025;-76
2023/01/08 03:43:04;;;;;;;4.53;4.32;;;;;;;8.99;100.00;99934.34;6053142;23;20037;-74
2023/01/08 03:45:32;;;;;;;4.90;4.57;;;;;;;8.94;100.00;99921.53;6108435;23;20032;-74
2023/01/08 03:48:01;;;;;;;4.57;4.38;;;;;;;8.44;100.00;99843.31;6113175;23;20088;-76
2023/01/08 03:50:30;;;;;;;4.60;4.40;;;;;;;8.99;100.00;99932.56;6160499;23;20012;-74
2023/01/08 03:52:57;;;;;;;4.88;4.43;;;;;;;8.97;100.00;99926.56;6116339;23;20026;-76
2023/01/08 03:55:26;;;;;;;4.70;4.40;;;;;;;8.46;100.00;99834.50;6153151;23;20036;-74
2023/01/08 03:57:52;;;;;;;5.63;4.25;;;;;;;8.94;100.00;99916.28;6118351;23;20013;-77
2023/01/08 04:00:19;;;;;;;4.25;4.05;;;;;;;8.65;100.00;99880.50;6159955;23;20621;-76
2023/01/08 04:02:45;;;;;;;4.78;4.47;;;;;;;8.97;100.00;99916.09;6119306;23;20026;-74
2023/01/08 04:05:12;;;;;;;4.60;4.20;;;;;;;8.93;100.00;99914.59;6150935;23;20032;-77
2023/01/08 04:07:39;;;;;;;4.75;4.55;;;;;;;7.88;100.00;99736.69;6121051;23;20069;-75
2023/01/08 04:10:05;;;;;;;4.25;4.05;;;;;;;8.34;100.00;99833.38;6146554;23;20097;-75
2023/01/08 04:12:32;;;;;;;4.32;4.13;;;;;;;8.59;100.00;99861.59;6104972;23;20020;-75
2023/01/08 04:14:59;;;;;;;4.28;4.07;;;;;;;8.87;100.00;99907.09;6144632;23;20084;-76
2023/01/08 04:17:25;;;;;;;4.13;3.92;;;;;;;8.70;100.00;99874.09;6149823;23;20049;-78
2023/01/08 04:19:51;;;;;;;4.45;4.25;;;;;;;8.55;100.00;99844.41;6144907;23;20017;-76
2023/01/08 04:22:18;;;;;;;4.47;4.18;;;;;;;8.65;100.00;99856.97;6121748;23;20477;-74
2023/01/08 04:24:44;;;;;;;4.75;4.45;;;;;;;8.60;100.00;99859.84;6142973;23;20075;-74
2023/01/08 04:27:11;;;;;;;4.20;4.00;;;;;;;8.17;100.00;99773.38;6113623;23;20049;-75
2023/01/08 04:29:37;;;;;;;4.22;4.03;;;;;;;8.64;100.00;99855.25;6152016;23;20024;-76
2023/01/08 04:32:04;;;;;;;4.38;4.18;;;;;;;8.81;100.00;99888.31;6115862;23;20030;-74
2023/01/08 04:34:30;;;;;;;4.00;3.80;;;;;;;8.16;100.00;99788.22;6147979;23;20545;-73
2023/01/08 04:36:56;;;;;;;4.10;3.90;;;;;;;8.78;100.00;99890.16;6097544;23;20112;-74
2023/01/08 04:39:23;;;;;;;4.07;3.88;;;;;;;8.43;100.00;99833.81;6150996;23;20021;-73
2023/01/08 04:41:49;;;;;;;3.70;3.60;;;;;;;8.75;100.00;99890.34;6154424;23;20108;-73
2023/01/08 04:44:16;;;;;;;4.13;3.92;;;;;;;8.39;100.00;99831.31;6150863;23;20070;-74
2023/01/08 04:46:42;;;;;;;3.90;3.70;;;;;;;8.39;100.00;99833.09;6146973;23;20060;-75
2023/01/08 04:49:12;;;;;;;4.50;4.30;;;;;;;8.55;100.00;99852.25;6123289;23;20033;-76
2023/01/08 04:51:38;;;;;;;3.80;3.70;;;;;;;8.69;100.00;99880.22;6147169;23;20063;-76
2023/01/08 04:54:05;;;;;;;4.15;3.95;;;;;;;8.04;100.00;99772.38;6139157;23;20104;-77
2023/01/08 04:56:31;;;;;;;4.25;4.05;;;;;;;8.70;100.00;99865.38;6117247;23;20044;-76
2023/01/08 04:59:00;;;;;;;4.25;4.00;;;;;;;8.70;100.00;99870.59;6149757;23;20605;-74
2023/01/08 05:01:27;;;;;;;4.75;4.45;;;;;;;8.70;100.00;99873.22;6114948;23;20514;-74
2023/01/08 05:03:56;;;;;;;4.07;3.88;;;;;;;8.54;100.00;99854.97;6146423;23;20182;-75
2023/01/08 05:06:24;;;;;;;4.30;4.10;;;;;;;8.74;100.00;99877.34;6141208;23;20044;-77
2023/01/08 05:08:50;;;;;;;3.83;3.70;;;;;;;8.03;100.00;99758.47;6156426;23;20100;-75
2023/01/08 05:11:17;;;;;;;3.90;3.70;;;;;;;8.00;100.00;99766.50;6148171;23;20029;-75
2023/01/08 05:13:47;;;;;;;4.13;3.92;;;;;;;8.69;100.00;99874.16;6117762;23;20100;-76
2023/01/08 05:16:14;;;;;;;3.97;3.78;;;;;;;8.66;100.00;99875.19;6144126;23;20036;-74
2023/01/08 05:18:42;;;;;;;4.05;3.85;;;;;;;7.91;100.00;99762.63;6145324;23;20391;-76
2023/01/08 05:21:09;;;;;;;3.97;3.78;;;;;;;8.59;100.00;99871.22;6136725;23;20026;-76
2023/01/08 05:23:35;;;;;;;4.10;3.90;;;;;;;8.63;100.00;99870.13;6139307;23;20741;-77
2023/01/08 05:26:04;;;;;;;4.00;3.80;;;;;;;8.58;100.00;99861.72;6150241;23;20009;-76
2023/01/08 05:28:31;;;;;;;4.13;3.92;;;;;;;7.76;100.00;99740.81;6119141;23;20108;-75
2023/01/08 05:30:57;;;;;;;4.10;3.90;;;;;;;8.45;100.00;99864.16;6120887;23;20037;-76
2023/01/08 05:33:25;;;;;;;4.07;3.88;;;;;;;7.28;100.00;99686.94;6108430;23;20151;-76
2023/01/08 05:35:51;;;;;;;4.03;3.83;;;;;;;8.07;100.00;99829.69;6144781;23;20019;-76
2023/01/08 05:38:18;;;;;;;4.70;4.43;;;;;;;8.23;100.00;99864.50;6118118;23;20021;-74
2023/01/08 05:40:44;;;;;;;4.10;3.90;;;;;;;7.83;100.00;99827.50;6149018;23;20017;-73
2023/01/08 05:43:13;;;;;;;5.38;5.18;;;;;;;7.61;100.00;99783.44;6159036;23;20024;-77
2023/01/08 05:45:39;;;;;;;4.20;4.00;;;;;;;8.09;100.00;99869.66;6148845;23;20032;-75
2023/01/08 05:48:06;;;;;;;4.00;3.80;;;;;;;8.04;100.00;99864.69;6150269;23;20022;-76
2023/01/08 05:50:34;;;;;;;4.03;3.83;;;;;;;7.80;100.00;99864.25;6144475;23;20029;-76
2023/01/08 05:53:00;;;;;;;4.22;3.92;;;;;;;8.01;100.00;99864.00;6156706;23;20031;-74
2023/01/08 05:55:26;;;;;;;4.13;3.92;;;;;;;7.96;100.00;99865.09;6146055;23;20017;-75
2023/01/08 05:57:53;;;;;;;4.07;3.88;;;;;;;7.34;100.00;99772.75;6147990;23;20032;-73
2023/01/08 06:00:19;;;;;;;4.00;3.80;;;;;;;7.33;100.00;99782.31;6118694;23;20056;-75
2023/01/08 06:02:46;;;;;;;5.07;4.68;;;;;;;7.86;100.00;99863.94;6125022;23;20037;-75
2023/01/08 06:05:14;;;;;;;3.97;3.78;;;;;;;6.99;100.00;99724.09;6115181;23;20018;-74
2023/01/08 06:07:40;;;;;;;4.10;3.90;;;;;;;7.48;100.00;99813.78;6144981;23;20096;-75
2023/01/08 06:10:07;;;;;;;4.05;3.85;;;;;;;7.94;100.00;99879.19;6149390;23;20014;-77
2023/01/08 06:12:33;;;;;;;3.80;3.70;;;;;;;7.46;100.00;99813.84;6145690;23;20386;-73
2023/01/08 06:15:00;;;;;;;3.85;3.72;;;;;;;7.83;100.00;99866.69;6114469;23;20017;-75
2023/01/08 06:17:26;;;;;;;3.60;3.50;;;;;;;6.79;100.00;99711.25;6141506;23;20216;-76
2023/01/08 06:19:52;;;;;;;4.10;3.90;;;;;;;7.74;100.00;99822.81;6145681;23;20081;-75
2023/01/08 06:22:19;;;;;;;3.88;3.72;;;;;;;7.98;100.00;99852.81;6149469;23;20475;-74
2023/01/08 06:24:45;;;;;;;4.20;4.00;;;;;;;8.26;100.00;99885.25;6142755;23;20029;-75
2023/01/08 06:27:11;;;;;;;3.97;3.80;;;;;;;7.69;100.00;99786.47;6042607;23;20603;-75
2023/01/08 06:29:38;;;;;;;3.67;3.58;;;;;;;8.28;100.00;99886.00;6132650;23;20048;-76
2023/01/08 06:32:04;;;;;;;3.90;3.75;;;;;;;8.32;100.00;99884.91;6145138;23;20038;-76
2023/01/08 06:34:31;;;;;;;3.72;3.63;;;;;;;8.26;100.00;99879.16;6115880;23;20029;-75
2023/01/08 06:36:57;;;;;;;4.22;4.03;;;;;;;8.39;100.00;99901.91;6147462;23;20032;-76
2023/01/08 06:39:23;;;;;;;4.25;4.05;;;;;;;8.47;100.00;99945.16;6116303;23;20626;-75
2023/01/08 06:41:50;;;;;;;3.97;3.80;;;;;;;8.61;100.00;99986.22;6145820;23;20032;-75
2023/01/08 06:44:16;;;;;;;4.90;4.70;;;;;;;8.29;100.00;99939.13;6107116;23;20022;-74
2023/01/08 06:46:43;;;;;;;4.00;3.80;;;;;;;7.14;100.00;99774.63;6136567;23;20084;-74
2023/01/08 06:49:10;;;;;;;4.10;3.90;;;;;;;8.13;100.00;99965.25;6079330;23;20645;-75
2023/01/08 06:51:36;;;;;;;3.70;3.60;;;;;;;7.37;100.00;99856.91;6142573;23;20005;-74
2023/01/08 06:54:03;;;;;;;3.70;3.60;;;;;;;7.93;100.00;99958.47;6113551;23;20687;-77
2023/01/08 06:56:29;;;;;;;4.00;3.80;;;;;;;6.97;100.00;99832.88;6140752;23;20019;-76
2023/01/08 06:58:56;;;;;;;3.63;3.53;;;;;;;7.78;100.00;99954.91;6115380;23;20620;-73
2023/01/08 07:01:22;;;;;;;4.93;4.30;;;;;;;7.71;100.00;99946.53;6133254;23;20092;-74
2023/01/08 07:03:49;;;;;;;3.63;3.53;;;;;;;7.66;100.00;99940.72;6145425;23;20021;-73
2023/01/08 07:06:19;;;;;;;6.90;4.53;;;;;;;7.43;100.00;99926.25;6155912;23;20029;-74
2023/01/08 07:08:46;;;;;;;3.70;3.58;;;;;;;7.60;100.00;99943.66;6122972;23;20028;-76
2023/01/08 07:11:13;;;;;;;3.70;3.60;;;;;;;7.41;100.00;99935.91;6131499;23;20077;-76
2023/01/08 07:13:40;;;;;;;3.60;3.50;;;;;;;6.83;100.00;99848.41;6156672;23;20036;-73
2023/01/08 07:16:11;;;;;;;3.65;3.55;;;;;;;7.43;100.00;99954.97;6146963;23;20013;-75
2023/01/08 07:18:38;;;;;;;3.92;3.78;;;;;;;7.38;100.00;99954.38;6150479;23;20088;-75
2023/01/08 07:21:06;;;;;;;3.60;3.50;;;;;;;7.37;100.00;99955.28;6112972;23;20022;-74
2023/01/08 07:23:34;;;;;;;3.88;3.72;;;;;;;7.33;100.00;99949.34;6138152;23;20040;-73
2023/01/08 07:26:06;;;;;;;4.32;4.05;;;;;;;6.99;100.00;99883.22;6114776;23;20017;-75
2023/01/08 07:28:33;;;;;;;3.88;3.72;;;;;;;7.27;100.00;99938.41;6144466;23;20032;-74
2023/01/08 07:31:04;;;;;;;11.82;3.70;;;;;;;7.23;100.00;99935.09;6100096;23;20011;-75
2023/01/08 07:33:30;;;;;;;3.70;3.60;;;;;;;7.24;100.00;99923.75;6150098;23;20016;-76
2023/01/08 07:35:57;;;;;;;3.90;3.70;;;;;;;6.81;100.00;99847.63;6116167;23;20032;-74
2023/01/08 07:38:23;;;;;;;4.38;4.07;;;;;;;7.29;100.00;99921.72;6146179;23;20029;-76
2023/01/08 07:40:49;;;;;;;3.78;3.67;;;;;;;6.68;100.00;99830.94;6142941;23;20014;-75
2023/01/08 07:43:16;;;;;;;4.00;3.80;;;;;;;7.31;100.00;99922.50;6142846;23;20009;-72
2023/01/08 07:45:42;;;;;;;3.63;3.53;;;;;;;7.05;100.00;99876.84;6144979;23;20012;-73
2023/01/08 07:48:09;;;;;;;3.80;3.70;;;;;;;6.64;100.00;99803.34;6140798;23;20029;-73
2023/01/08 07:50:37;;;;;;;4.00;3.80;;;;;;;7.16;100.00;99879.78;6141527;23;20028;-73
2023/01/08 07:53:06;;;;;;;4.00;3.80;;;;;;;7.33;100.00;99905.00;6150028;23;20025;-73
2023/01/08 07:55:32;;;;;;;4.03;3.83;;;;;;;7.54;100.00;99947.44;6146440;23;20563;-73
2023/01/08 07:57:58;;;;;;;4.13;3.90;;;;;;;7.53;100.00;99932.66;6141450;23;20036;-72
2023/01/08 08:00:25;;;;;;;4.07;3.88;;;;;;;7.55;100.00;99933.44;6139725;23;20531;-72
2023/01/08 08:02:52;;;;;;;4.43;4.13;;;;;;;7.57;100.00;99931.59;6145259;23;20914;-72
2023/01/08 08:05:18;;;;;;;3.70;3.60;;;;;;;7.53;100.00;99935.28;6114138;23;20025;-73
2023/01/08 08:07:45;;;;;;;4.40;4.10;;;;;;;7.49;100.00;99933.75;6144974;23;20405;-72
2023/01/08 08:10:11;;;;;;;4.28;4.07;;;;;;;6.86;100.00;99847.44;6114346;23;20028;-74
2023/01/08 08:12:37;;;;;;;4.32;4.13;;;;;;;7.37;100.00;99921.34;6136400;23;20025;-72
2023/01/08 08:15:04;;;;;;;4.03;3.80;;;;;;;7.14;100.00;99904.25;6141095;23;20440;-72
2023/01/08 08:17:31;;;;;;;4.05;3.85;;;;;;;6.67;100.00;99830.06;6142375;23;20597;-73
2023/01/08 08:19:57;;;;;;;4.25;3.92;;;;;;;7.28;100.00;99934.88;6116947;23;20024;-71
2023/01/08 08:22:24;;;;;;;3.72;3.63;;;;;;;7.32;100.00;99925.97;6141945;23;20529;-73
2023/01/08 08:24:50;;;;;;;4.25;4.05;;;;;;;7.39;100.00;99932.53;6139159;23;21212;-74
2023/01/08 08:27:17;;;;;;;4.03;3.83;;;;;;;7.43;100.00;99936.69;6146697;23;20091;-74
2023/01/08 08:29:43;;;;;;;3.70;3.60;;;;;;;7.47;100.00;99935.59;6137464;23;20037;-74
2023/01/08 08:32:10;;;;;;;3.70;3.60;;;;;;;7.51;100.00;99929.28;6092523;23;20025;-73
2023/01/08 08:34:36;;;;;;;8.88;5.00;;;;;;;7.49;100.00;99931.16;6137819;23;20033;-74
2023/01/08 08:37:02;;;;;;;4.00;3.80;;;;;;;7.39;100.00;99928.16;6113340;23;20028;-73
2023/01/08 08:39:29;;;;;;;4.57;4.38;;;;;;;6.87;100.00;99846.50;6138544;23;20030;-73
2023/01/08 08:41:55;;;;;;;3.80;3.70;;;;;;;7.24;100.00;99918.53;6143533;23;20031;-73
2023/01/08 08:44:22;;;;;;;4.20;3.90;;;;;;;7.19;100.00;99917.91;6133339;23;20023;-71
2023/01/08 08:46:48;;;;;;;4.15;3.95;;;;;;;6.67;100.00;99844.88;6130790;23;20013;-72
2023/01/08 08:49:14;;;;;;;4.40;4.10;;;;;;;6.78;100.00;99866.06;6146516;23;20057;-72
2023/01/08 08:51:43;;;;;;;4.05;3.85;;;;;;;6.17;100.00;99766.53;6118768;23;20550;-72
2023/01/08 08:54:10;;;;;;;4.22;4.03;;;;;;;6.51;100.00;99835.19;6145578;23;20021;-73
2023/01/08 08:56:39;;;;;;;3.70;3.60;;;;;;;6.95;100.00;99901.72;6120814;23;20025;-71
2023/01/08 08:59:05;;;;;;;3.95;3.75;;;;;;;6.93;100.00;99893.97;6141719;23;20021;-73
2023/01/08 09:01:34;;;;;;;3.90;3.75;;;;;;;6.88;100.00;99884.72;6111324;23;20253;-71
2023/01/08 09:04:01;;;;;;;3.70;3.60;;;;;;;6.85;100.00;99888.28;6151222;23;20033;-72
2023/01/08 09:06:27;;;;;;;3.88;3.67;;;;;;;6.82;100.00;99885.84;6148451;23;20026;-72
2023/01/08 09:08:54;;;;;;;4.00;3.80;;;;;;;6.82;100.00;99887.63;6152787;23;20024;-73
2023/01/08 09:11:20;;;;;;;4.00;3.80;;;;;;;6.26;100.00;99806.06;6118992;23;20030;-74
2023/01/08 09:13:47;;;;;;;4.40;4.20;;;;;;;5.69;100.00;99721.06;6143033;23;20024;-72
2023/01/08 09:16:13;;;;;;;4.35;4.05;;;;;;;6.64;100.00;99865.91;6116994;23;20176;-73
2023/01/08 09:18:40;;;;;;;4.38;4.18;;;;;;;6.42;100.00;99824.41;6145091;23;20045;-72
2023/01/08 09:21:07;;;;;;;4.45;4.15;;;;;;;6.36;100.00;99800.31;6102319;23;20813;-71
2023/01/08 09:23:34;;;;;;;4.13;3.92;;;;;;;6.71;100.00;99847.25;6122333;23;20032;-73
2023/01/08 09:26:03;;;;;;;4.20;4.00;;;;;;;6.45;100.00;99790.34;6129905;23;20416;-73
2023/01/08 09:28:30;;;;;;;4.07;3.88;;;;;;;6.04;100.00;99730.72;6088783;23;20029;-75
2023/01/08 09:31:03;;;;;;;3.80;3.60;;;;;;;7.39;100.00;99907.28;6148402;23;20033;-75
2023/01/08 09:33:30;;;;;;;5.90;4.32;;;;;;;6.98;100.00;99807.66;6116928;23;20021;-74
2023/01/08 09:35:57;;;;;;;11.00;4.15;;;;;;;7.47;100.00;99862.50;6149956;23;20028;-74
2023/01/08 09:38:23;;;;;;;4.32;3.97;;;;;;;7.58;100.00;99834.06;6144656;23;20025;-73
2023/01/08 09:41:00;;;;;;;4.03;3.83;;;;;;;8.37;100.00;99916.00;6148946;23;20076;-74
2023/01/08 09:43:30;;;;;;;4.00;3.80;;;;;;;8.42;100.00;99882.66;6113884;23;20071;-74
2023/01/08 09:46:01;;;;;;;4.35;4.15;;;;;;;8.86;100.00;99915.03;6125786;23;20410;-76
2023/01/08 09:48:31;;;;;;;4.40;4.03;;;;;;;8.37;100.00;99798.38;6141534;23;20056;-74
2023/01/08 09:50:58;;;;;;;4.03;3.83;;;;;;;9.03;100.00;99887.91;6152702;23;20080;-76
2023/01/08 09:53:24;;;;;;;4.70;4.30;;;;;;;9.26;100.00;99900.47;6125958;23;20025;-74
2023/01/08 09:56:03;;;;;;;4.25;4.05;;;;;;;8.69;100.00;99782.59;6141812;23;20034;-74
2023/01/08 09:58:40;;;;;;;4.13;3.92;;;;;;;9.09;100.00;99825.56;6114434;23;20506;-74
2023/01/08 10:01:13;;;;;;;4.00;3.80;;;;;;;9.66;100.00;99907.69;6155725;23;20013;-74
2023/01/08 10:03:46;;;;;;;3.75;3.65;;;;;;;9.68;100.00;99892.72;6140748;23;20107;-72
2023/01/08 10:06:13;;;;;;;;;;;;;;;9.70;100.00;99883.84;6126554;23;20029;-72
2023/01/08 10:08:40;;;;;;;4.43;4.20;;;;;;;9.73;100.00;99885.44;6133166;23;19916;-72
2023/01/08 10:11:08;;;;;;;4.13;3.90;;;;;;;9.82;100.00;99879.59;6146442;23;20076;-72
2023/01/08 10:13:40;;;;;;;4.20;4.00;;;;;;;9.81;99.13;99874.47;6145570;23;20033;-72
2023/01/08 10:16:20;;;;;;;4.05;3.85;;;;;;;9.67;99.22;99857.00;6117799;23;20084;-73
2023/01/08 10:18:47;;;;;;;4.20;4.00;;;;;;;9.66;99.34;99855.28;6145176;23;20419;-72
2023/01/08 10:21:14;;;;;;;3.95;3.75;;;;;;;9.69;99.34;99847.25;6090888;23;20052;-74
2023/01/08 10:23:51;;;;;;;4.63;4.32;;;;;;;9.71;100.00;99842.75;6138616;23;20016;-73
2023/01/08 10:26:35;;;;;;;4.20;4.00;;;;;;;9.39;99.86;99756.56;6082595;23;20317;-73
2023/01/08 10:29:16;;;;;;;4.03;3.83;;;;;;;10.14;99.12;99856.63;6140416;23;20033;-74
2023/01/08 10:31:51;;;;;;;4.30;4.10;;;;;;;10.40;97.21;99830.50;6093398;23;20017;-72
2023/01/08 10:34:40;;;;;;;4.57;4.32;;;;;;;9.94;94.39;99729.47;6153589;23;20482;-74
2023/01/08 10:37:15;;;;;;;5.10;4.80;;;;;;;10.50;93.23;99809.75;6143664;23;20144;-73
2023/01/08 10:39:46;;;;;;;4.10;3.90;;;;;;;10.69;92.93;99806.78;6141339;23;20017;-72
2023/01/08 10:42:15;;;;;;;4.35;4.15;;;;;;;10.38;91.64;99719.63;6112630;23;20177;-72
2023/01/08 10:44:54;;;;;;;4.30;4.10;;;;;;;9.89;90.66;99608.34;6148338;23;20099;-71
2023/01/08 10:47:22;;;;;;;4.50;4.20;;;;;;;10.42;90.11;99683.53;6113948;23;20033;-71
2023/01/08 10:49:48;;;;;;;4.20;4.00;;;;;;;10.28;89.82;99661.66;6132814;23;20682;-71
2023/01/08 10:52:20;;;;;;;4.30;4.05;;;;;;;11.02;89.29;99753.75;6114927;23;20402;-71
2023/01/08 10:54:47;;;;;;;6.10;4.15;;;;;;;10.43;88.82;99664.25;6111640;23;20601;-71
2023/01/08 10:57:26;;;;;;;7.57;4.43;;;;;;;10.82;89.09;99734.13;6087196;23;20074;-71
2023/01/08 10:59:54;;;;;;;4.25;4.05;;;;;;;10.09;89.24;99628.00;6146541;23;20046;-71
2023/01/08 11:02:29;;;;;;;4.28;4.07;;;;;;;10.65;90.32;99730.03;6135326;23;20095;-70
2023/01/08 11:04:58;;;;;;;4.35;4.15;;;;;;;9.42;90.24;99522.44;6139549;23;20080;-71
2023/01/08 11:07:24;;;;;;;5.55;4.15;;;;;;;10.54;90.26;99716.78;6105439;23;20041;-72
2023/01/08 11:09:52;;;;;;;4.65;4.45;;;;;;;10.53;91.04;99712.50;6140727;23;20012;-70
2023/01/08 11:12:32;;;;;;;4.18;3.97;;;;;;;10.38;90.69;99694.25;6133969;23;20084;-71
2023/01/08 11:14:59;;;;;;;5.35;5.15;;;;;;;9.77;90.90;99589.06;6140599;23;20063;-70
2023/01/08 11:17:26;;;;;;;4.15;3.95;;;;;;;10.49;91.18;99690.06;6137378;23;20080;-71
2023/01/08 11:19:53;;;;;;;4.43;4.22;;;;;;;10.56;90.75;99686.91;6141773;23;20055;-72
2023/01/08 11:22:24;;;;;;;4.80;4.40;;;;;;;10.47;90.20;99669.16;6135742;23;20079;-71
2023/01/08 11:24:52;;;;;;;4.38;4.15;;;;;;;10.54;89.92;99672.19;6121248;23;20386;-71
2023/01/08 11:27:32;;;;;;;4.63;4.35;;;;;;;10.56;90.56;99673.78;6126312;23;20014;-71
2023/01/08 11:30:06;;;;;;;4.70;4.50;;;;;;;10.52;90.35;99671.47;6123324;23;20515;-70
2023/01/08 11:32:45;;;;;;;4.50;4.30;;;;;;;10.50;90.95;99668.09;6134996;23;20032;-71
2023/01/08 11:35:20;;;;;;;4.25;4.05;;;;;;;10.44;91.07;99658.03;6125267;23;20393;-70
2023/01/08 11:37:57;;;;;;;4.85;4.55;;;;;;;10.48;90.82;99654.25;6098733;23;20022;-70
2023/01/08 11:40:43;;;;;;;4.53;4.30;;;;;;;10.41;90.16;99637.28;6113565;23;20073;-71